Time;durP1;ratioP1;P1;durP2;ratioP2;P2;SDS_P1;SDS_P2;PMS_P1;PMS_P2;Temp;Humidity;BMP_temperature;BMP_pressure;BME280_temperature;BME280_humidity;BME280_pressure;Samples;Min_cycle;Max_cycle;Signal;HPM_P1;HPM_P2
2022/03/20 00:01:04;;;;;;;25.33;15.07;;;;;;;;;;4925635;29;20039;-68
2022/03/20 00:03:31;;;;;;;25.90;15.05;;;;;;;;;;4924233;29;20205;-69
2022/03/20 00:05:58;;;;;;;21.38;12.30;;;;;;;;;;4924070;29;20043;-68
2022/03/20 00:08:23;;;;;;;27.75;15.88;;;;;;;;;;4924111;29;20039;-69
2022/03/20 00:10:50;;;;;;;25.35;14.63;;;;;;;;;;4924035;29;20053;-70
2022/03/20 00:13:18;;;;;;;25.23;13.60;;;;;;;;;;4923463;29;20043;-70
2022/03/20 00:15:46;;;;;;;28.27;13.80;;;;;;;;;;4923002;29;20552;-70
2022/03/20 00:18:13;;;;;;;30.52;15.88;;;;;;;;;;4923558;29;20052;-69
2022/03/20 00:20:46;;;;;;;22.33;14.10;;;;;;;;;;4924083;29;20051;-69
2022/03/20 00:23:12;;;;;;;30.70;15.38;;;;;;;;;;4923659;29;20047;-68
2022/03/20 00:25:42;;;;;;;29.08;16.02;;;;;;;;;;4923521;29;20043;-69
2022/03/20 00:28:09;;;;;;;23.83;14.85;;;;;;;;;;4923807;29;20038;-70
2022/03/20 00:30:35;;;;;;;27.27;15.02;;;;;;;;;;4923840;29;20043;-69
2022/03/20 00:33:01;;;;;;;24.83;14.65;;;;;;;;;;4923684;29;20102;-68
2022/03/20 00:35:28;;;;;;;30.25;16.48;;;;;;;;;;4926279;29;20055;-69
2022/03/20 00:37:53;;;;;;;25.83;14.75;;;;;;;;;;4927002;29;20043;-69
2022/03/20 00:40:19;;;;;;;27.02;15.55;;;;;;;;;;4927739;29;20090;-70
2022/03/20 00:42:44;;;;;;;28.92;15.45;;;;;;;;;;4927475;29;20040;-69
2022/03/20 00:45:10;;;;;;;31.48;16.23;;;;;;;;;;4910518;29;20130;-70
2022/03/20 00:47:35;;;;;;;24.50;14.73;;;;;;;;;;4926806;29;20035;-70
2022/03/20 00:50:01;;;;;;;24.98;15.15;;;;;;;;;;4927330;29;20066;-68
2022/03/20 00:52:26;;;;;;;26.48;14.55;;;;;;;;;;4926988;29;20122;-69
2022/03/20 00:54:52;;;;;;;26.05;16.42;;;;;;;;;;4927476;29;20047;-69
2022/03/20 00:57:17;;;;;;;31.15;16.55;;;;;;;;;;4927280;29;20047;-69
2022/03/20 00:59:43;;;;;;;26.30;15.25;;;;;;;;;;4909991;29;20106;-68
2022/03/20 01:02:09;;;;;;;25.63;14.30;;;;;;;;;;4926890;29;20039;-69
2022/03/20 01:04:35;;;;;;;24.27;14.23;;;;;;;;;;4927217;29;20788;-69
2022/03/20 01:07:02;;;;;;;25.52;14.48;;;;;;;;;;4927450;29;20043;-69
2022/03/20 01:09:29;;;;;;;26.50;14.90;;;;;;;;;;4926186;29;20067;-70
2022/03/20 01:11:55;;;;;;;29.33;15.65;;;;;;;;;;4927060;29;20079;-69
2022/03/20 01:14:22;;;;;;;27.90;16.10;;;;;;;;;;4927161;29;20126;-68
2022/03/20 01:16:49;;;;;;;27.15;16.42;;;;;;;;;;4927038;29;20994;-68
2022/03/20 01:19:15;;;;;;;26.00;14.45;;;;;;;;;;4926820;29;20032;-70
2022/03/20 01:21:41;;;;;;;26.73;13.88;;;;;;;;;;4925649;29;20126;-68
2022/03/20 01:24:08;;;;;;;27.20;16.08;;;;;;;;;;4909504;29;20127;-68
2022/03/20 01:26:34;;;;;;;27.35;15.45;;;;;;;;;;4926321;29;20048;-68
2022/03/20 01:29:00;;;;;;;32.83;15.35;;;;;;;;;;4926631;29;20489;-69
2022/03/20 01:31:28;;;;;;;20.52;11.98;;;;;;;;;;4926077;29;20099;-69
2022/03/20 01:33:54;;;;;;;30.35;16.10;;;;;;;;;;4926774;29;20050;-68
2022/03/20 01:36:19;;;;;;;33.35;17.92;;;;;;;;;;4926714;29;20032;-68
2022/03/20 01:38:44;;;;;;;29.80;16.35;;;;;;;;;;4926682;29;20516;-68
2022/03/20 01:41:10;;;;;;;33.17;16.52;;;;;;;;;;4926090;29;20050;-68
2022/03/20 01:43:35;;;;;;;27.48;14.38;;;;;;;;;;4925614;29;20382;-68
2022/03/20 01:46:02;;;;;;;28.40;15.20;;;;;;;;;;4924327;29;20039;-69
2022/03/20 01:48:27;;;;;;;29.40;17.83;;;;;;;;;;4925520;29;20042;-69
2022/03/20 01:50:54;;;;;;;25.85;16.13;;;;;;;;;;4926512;29;20047;-68
2022/03/20 01:53:19;;;;;;;29.60;16.50;;;;;;;;;;4925623;29;20493;-70
2022/03/20 01:55:46;;;;;;;31.05;16.77;;;;;;;;;;4926598;29;20047;-65
2022/03/20 01:58:14;;;;;;;35.47;15.30;;;;;;;;;;4925924;29;20054;-69
2022/03/20 02:00:40;;;;;;;31.67;16.92;;;;;;;;;;4926067;29;20485;-69
2022/03/20 02:03:05;;;;;;;26.73;14.65;;;;;;;;;;4909069;29;20054;-70
2022/03/20 02:05:31;;;;;;;26.38;15.45;;;;;;;;;;4925605;29;20055;-68
2022/03/20 02:07:57;;;;;;;28.05;16.58;;;;;;;;;;4926337;29;20036;-68
2022/03/20 02:10:23;;;;;;;28.25;15.30;;;;;;;;;;4926046;29;20122;-68
2022/03/20 02:12:48;;;;;;;29.60;17.58;;;;;;;;;;4926369;29;20071;-68
2022/03/20 02:15:16;;;;;;;32.55;16.45;;;;;;;;;;4925307;29;20035;-68
2022/03/20 02:17:42;;;;;;;30.17;16.05;;;;;;;;;;4926089;29;20090;-68
2022/03/20 02:20:09;;;;;;;26.45;16.02;;;;;;;;;;4925922;29;20965;-69
2022/03/20 02:22:43;;;;;;;29.40;16.15;;;;;;;;;;4926180;29;20058;-68
2022/03/20 02:25:10;;;;;;;41.50;18.38;;;;;;;;;;4926171;29;20052;-69
2022/03/20 02:27:39;;;;;;;35.03;19.05;;;;;;;;;;4924773;29;20059;-67
2022/03/20 02:30:12;;;;;;;28.75;16.83;;;;;;;;;;4925226;29;20036;-67
2022/03/20 02:32:40;;;;;;;32.70;17.90;;;;;;;;;;4925427;29;20045;-67
2022/03/20 02:35:11;;;;;;;29.63;15.93;;;;;;;;;;4920869;29;20167;-69
2022/03/20 02:37:39;;;;;;;20.05;11.52;;;;;;;;;;4924855;29;20050;-69
2022/03/20 02:40:05;;;;;;;31.80;17.10;;;;;;;;;;4925232;29;20043;-68
2022/03/20 02:42:30;;;;;;;33.60;18.75;;;;;;;;;;4925628;29;20039;-68
2022/03/20 02:45:04;;;;;;;28.05;15.40;;;;;;;;;;4925404;29;20043;-68
2022/03/20 02:47:43;;;;;;;26.20;15.43;;;;;;;;;;4925571;29;20067;-68
2022/03/20 02:50:18;;;;;;;31.65;19.17;;;;;;;;;;4924503;29;20051;-68
2022/03/20 02:52:51;;;;;;;30.65;17.95;;;;;;;;;;4923264;29;20071;-69
2022/03/20 02:55:22;;;;;;;29.80;16.25;;;;;;;;;;4925142;29;20098;-69
2022/03/20 02:57:47;;;;;;;29.95;17.02;;;;;;;;;;4922865;29;20043;-68
2022/03/20 03:00:17;;;;;;;33.47;18.63;;;;;;;;;;4924378;29;20042;-69
2022/03/20 03:02:44;;;;;;;24.00;14.27;;;;;;;;;;4925214;29;20412;-69
2022/03/20 03:05:10;;;;;;;27.33;15.20;;;;;;;;;;4925408;29;20043;-67
2022/03/20 03:13:08;;;;;;;31.58;15.52;;;;;;;;;;4924653;29;20036;-69
2022/03/20 03:15:33;;;;;;;28.17;14.93;;;;;;;;;;4924399;29;20055;-69
2022/03/20 03:18:00;;;;;;;28.17;17.05;;;;;;;;;;4923425;29;20091;-67
2022/03/20 03:20:26;;;;;;;25.92;14.30;;;;;;;;;;4924273;29;20046;-70
2022/03/20 03:22:51;;;;;;;30.20;17.20;;;;;;;;;;4923931;29;20040;-70
2022/03/20 03:25:17;;;;;;;30.25;16.38;;;;;;;;;;4924889;29;20058;-68
2022/03/20 03:27:42;;;;;;;31.73;17.15;;;;;;;;;;4925146;29;20035;-69
2022/03/20 03:30:08;;;;;;;40.17;18.75;;;;;;;;;;4924545;29;20055;-69
2022/03/20 03:32:34;;;;;;;31.13;17.35;;;;;;;;;;4923684;29;20138;-70
2022/03/20 03:37:44;;;;;;;29.23;16.40;;;;;;;;;;4906237;29;20076;-69
2022/03/20 03:40:10;;;;;;;29.75;16.83;;;;;;;;;;4924534;29;20047;-69
2022/03/20 03:42:36;;;;;;;28.35;14.73;;;;;;;;;;4924322;29;20050;-69
2022/03/20 03:45:05;;;;;;;27.52;15.48;;;;;;;;;;4923679;29;20412;-69
2022/03/20 03:47:30;;;;;;;27.30;14.35;;;;;;;;;;4924247;29;20043;-68
2022/03/20 03:49:56;;;;;;;32.83;17.63;;;;;;;;;;4924164;29;20047;-67
2022/03/20 03:52:22;;;;;;;29.00;15.13;;;;;;;;;;4924170;29;20050;-69
2022/03/20 03:54:47;;;;;;;30.55;16.02;;;;;;;;;;4923846;29;20406;-69
2022/03/20 03:57:13;;;;;;;35.88;19.00;;;;;;;;;;4924099;29;20182;-70
2022/03/20 03:59:38;;;;;;;33.83;16.13;;;;;;;;;;4924113;29;20074;-68
2022/03/20 04:02:04;;;;;;;27.90;16.02;;;;;;;;;;4924019;29;20126;-68
2022/03/20 04:04:30;;;;;;;33.85;17.98;;;;;;;;;;4924083;29;20039;-69
2022/03/20 04:06:56;;;;;;;33.17;18.67;;;;;;;;;;4923284;29;20039;-68
2022/03/20 04:09:23;;;;;;;31.90;17.48;;;;;;;;;;4923917;29;20046;-67
2022/03/20 04:11:48;;;;;;;28.55;16.15;;;;;;;;;;4923986;29;20043;-67
2022/03/20 04:14:14;;;;;;;33.17;17.52;;;;;;;;;;4923868;29;20046;-68
2022/03/20 04:16:39;;;;;;;26.08;14.25;;;;;;;;;;4923235;29;20044;-67
2022/03/20 04:19:05;;;;;;;34.28;16.23;;;;;;;;;;4923943;29;20955;-67
2022/03/20 04:21:30;;;;;;;27.35;15.45;;;;;;;;;;4923834;29;20051;-68
2022/03/20 04:23:56;;;;;;;26.25;16.27;;;;;;;;;;4923935;29;20059;-67
2022/03/20 04:26:23;;;;;;;37.35;19.90;;;;;;;;;;4923191;29;20050;-67
2022/03/20 04:28:51;;;;;;;30.83;16.35;;;;;;;;;;4923652;29;20071;-67
2022/03/20 04:31:19;;;;;;;33.45;17.77;;;;;;;;;;4923919;29;20036;-68
2022/03/20 04:33:48;;;;;;;34.03;18.33;;;;;;;;;;4922184;29;20070;-67
2022/03/20 04:36:14;;;;;;;34.38;19.63;;;;;;;;;;4923136;29;20036;-67
2022/03/20 04:38:39;;;;;;;26.98;15.77;;;;;;;;;;4922840;29;20043;-67
2022/03/20 04:41:05;;;;;;;28.25;15.68;;;;;;;;;;4923591;29;20108;-68
2022/03/20 04:43:32;;;;;;;25.48;14.85;;;;;;;;;;4923447;29;20043;-69
2022/03/20 04:45:59;;;;;;;30.17;17.98;;;;;;;;;;4923914;29;20047;-69
2022/03/20 04:59:20;;;;;;;32.00;18.85;;;;;;;;;;4922495;29;20052;-67
2022/03/20 05:01:45;;;;;;;30.52;15.68;;;;;;;;;;4923552;29;20042;-67
2022/03/20 05:04:13;;;;;;;37.97;15.65;;;;;;;;;;4923182;29;20103;-68
2022/03/20 05:06:39;;;;;;;34.42;18.90;;;;;;;;;;4923387;29;20064;-66
2022/03/20 05:14:56;;;;;;;29.20;17.50;;;;;;;;;;4864465;29;20048;-70
2022/03/20 05:17:22;;;;;;;30.70;17.25;;;;;;;;;;4864524;29;20055;-69
2022/03/20 05:19:47;;;;;;;36.03;20.17;;;;;;;;;;4892827;29;20051;-69
2022/03/20 05:22:13;;;;;;;21.20;13.85;;;;;;;;;;4925572;29;20043;-68
2022/03/20 05:24:39;;;;;;;33.00;17.35;;;;;;;;;;4926641;29;20048;-68
2022/03/20 05:27:07;;;;;;;33.95;16.25;;;;;;;;;;4926724;29;20115;-68
2022/03/20 05:29:33;;;;;;;31.77;18.77;;;;;;;;;;4927034;29;20769;-68
2022/03/20 05:32:01;;;;;;;31.25;16.80;;;;;;;;;;4926583;29;20971;-68
2022/03/20 05:34:26;;;;;;;37.85;17.17;;;;;;;;;;4925672;29;20039;-69
2022/03/20 05:36:52;;;;;;;35.83;18.35;;;;;;;;;;4926702;29;20051;-68
2022/03/20 05:41:59;;;;;;;56.28;23.70;;;;;;;;;;5131850;23;20057;-69
2022/03/20 05:44:26;;;;;;;66.00;26.15;;;;;;;;;;4964125;28;20255;-69
2022/03/20 05:46:54;;;;;;;62.78;30.52;;;;;;;;;;4964706;28;20046;-69
2022/03/20 05:49:21;;;;;;;32.70;16.55;;;;;;;;;;4955395;28;20400;-69
2022/03/20 05:51:48;;;;;;;33.20;18.55;;;;;;;;;;4945579;28;20031;-68
2022/03/20 05:54:15;;;;;;;31.38;17.77;;;;;;;;;;4944880;28;20043;-69
2022/03/20 05:59:25;;;;;;;28.20;15.75;;;;;;;;;;4945849;28;20066;-68
2022/03/20 06:01:51;;;;;;;38.00;18.65;;;;;;;;;;4946543;28;20043;-68
2022/03/20 06:04:20;;;;;;;30.40;17.55;;;;;;;;;;4952683;28;20142;-67
2022/03/20 06:06:48;;;;;;;24.77;13.65;;;;;;;;;;4952175;28;20043;-69
2022/03/20 06:09:15;;;;;;;27.40;15.43;;;;;;;;;;4959245;28;20106;-67
2022/03/20 06:11:40;;;;;;;28.13;14.35;;;;;;;;;;4955368;28;20544;-68
2022/03/20 06:14:06;;;;;;;37.80;21.20;;;;;;;;;;4953708;28;20134;-68
2022/03/20 06:16:34;;;;;;;36.00;17.88;;;;;;;;;;4944151;28;20053;-67
2022/03/20 06:19:01;;;;;;;27.65;16.38;;;;;;;;;;4951650;28;20161;-68
2022/03/20 06:21:27;;;;;;;28.67;16.00;;;;;;;;;;4952746;28;20047;-68
2022/03/20 06:23:54;;;;;;;30.45;18.25;;;;;;;;;;4947748;28;20041;-69
2022/03/20 06:26:20;;;;;;;28.17;17.25;;;;;;;;;;4947747;28;20389;-66
2022/03/20 06:28:48;;;;;;;31.40;17.35;;;;;;;;;;4949959;28;20511;-67
2022/03/20 06:31:16;;;;;;;32.60;16.20;;;;;;;;;;4947900;28;20097;-68
2022/03/20 06:33:46;;;;;;;32.25;17.70;;;;;;;;;;4953451;28;20039;-68
2022/03/20 06:36:12;;;;;;;28.08;16.45;;;;;;;;;;4944330;28;20102;-67
2022/03/20 06:38:38;;;;;;;29.35;17.42;;;;;;;;;;4947924;28;20480;-67
2022/03/20 06:41:04;;;;;;;36.10;20.15;;;;;;;;;;4941926;28;20059;-68
2022/03/20 06:43:30;;;;;;;33.45;18.33;;;;;;;;;;4945597;28;20038;-70
2022/03/20 06:45:56;;;;;;;31.90;17.73;;;;;;;;;;4949858;28;20127;-68
2022/03/20 06:48:22;;;;;;;33.38;18.40;;;;;;;;;;4946627;28;20035;-70
2022/03/20 06:50:48;;;;;;;29.17;16.95;;;;;;;;;;4949067;28;20137;-68
2022/03/20 06:53:13;;;;;;;39.38;21.05;;;;;;;;;;4957150;28;20507;-68
2022/03/20 06:55:39;;;;;;;35.00;18.10;;;;;;;;;;4950788;28;20039;-68
2022/03/20 06:58:05;;;;;;;31.35;18.13;;;;;;;;;;4954930;28;20491;-67
2022/03/20 07:00:31;;;;;;;30.13;17.05;;;;;;;;;;4943287;28;20130;-68
2022/03/20 07:03:00;;;;;;;30.70;18.15;;;;;;;;;;4945974;28;20031;-67
2022/03/20 07:05:26;;;;;;;29.20;17.45;;;;;;;;;;4945785;28;20047;-68
2022/03/20 07:07:52;;;;;;;26.45;15.73;;;;;;;;;;4943565;28;20045;-68
2022/03/20 07:10:22;;;;;;;28.00;16.63;;;;;;;;;;4948612;28;20039;-66
2022/03/20 07:12:50;;;;;;;27.98;17.05;;;;;;;;;;4946142;28;20049;-68
2022/03/20 07:15:17;;;;;;;26.55;17.17;;;;;;;;;;4942369;28;20837;-68
2022/03/20 07:17:45;;;;;;;28.45;17.33;;;;;;;;;;4944650;28;20126;-68
2022/03/20 07:20:13;;;;;;;28.55;17.95;;;;;;;;;;4948381;28;20039;-68
2022/03/20 07:22:40;;;;;;;27.25;17.52;;;;;;;;;;4940296;28;20604;-68
2022/03/20 07:30:34;;;;;;;29.20;16.90;;;;;;;;;;4942379;28;20476;-68
2022/03/20 07:33:00;;;;;;;20.80;12.05;;;;;;;;;;4942595;28;20042;-67
2022/03/20 07:35:25;;;;;;;27.02;17.50;;;;;;;;;;4949262;28;20031;-68
2022/03/20 07:37:51;;;;;;;25.75;15.75;;;;;;;;;;4942464;28;20039;-68
2022/03/20 07:40:17;;;;;;;27.20;17.52;;;;;;;;;;4948106;28;20077;-71
2022/03/20 07:42:42;;;;;;;25.23;15.13;;;;;;;;;;4941892;28;20114;-69
2022/03/20 07:45:09;;;;;;;25.23;16.23;;;;;;;;;;4949562;28;20498;-72
2022/03/20 07:47:34;;;;;;;26.95;16.90;;;;;;;;;;4942466;28;20031;-72
2022/03/20 07:50:00;;;;;;;29.27;16.85;;;;;;;;;;4941964;28;20058;-71
2022/03/20 07:52:25;;;;;;;25.38;15.63;;;;;;;;;;4946775;28;20053;-70
2022/03/20 07:54:51;;;;;;;24.55;15.80;;;;;;;;;;4941252;28;20105;-68
2022/03/20 07:57:22;;;;;;;23.40;14.63;;;;;;;;;;4946262;28;20035;-70
2022/03/20 07:59:47;;;;;;;20.30;14.57;;;;;;;;;;4945120;28;20027;-70
2022/03/20 08:02:13;;;;;;;24.45;14.98;;;;;;;;;;4943399;28;20889;-70
2022/03/20 08:04:40;;;;;;;23.02;14.13;;;;;;;;;;4942369;28;20485;-70
2022/03/20 08:07:06;;;;;;;21.92;13.90;;;;;;;;;;4949800;28;20407;-69
2022/03/20 08:09:32;;;;;;;23.98;15.88;;;;;;;;;;4950644;28;20042;-69
2022/03/20 08:11:57;;;;;;;21.60;15.18;;;;;;;;;;4943281;28;20042;-69
2022/03/20 08:14:23;;;;;;;23.73;14.55;;;;;;;;;;4947903;28;20113;-69
2022/03/20 08:16:49;;;;;;;24.85;14.45;;;;;;;;;;4945529;28;20123;-69
2022/03/20 08:19:16;;;;;;;24.48;14.02;;;;;;;;;;4941858;28;20023;-71
2022/03/20 08:21:43;;;;;;;21.45;14.15;;;;;;;;;;4949975;28;20610;-72
2022/03/20 08:24:08;;;;;;;23.38;14.93;;;;;;;;;;4946722;28;20035;-72
2022/03/20 08:26:35;;;;;;;20.42;13.85;;;;;;;;;;4948610;28;20500;-71
2022/03/20 08:29:01;;;;;;;22.65;14.80;;;;;;;;;;4952472;28;20984;-69
2022/03/20 08:31:33;;;;;;;21.45;14.27;;;;;;;;;;4943891;28;20051;-72
2022/03/20 08:33:59;;;;;;;24.63;13.80;;;;;;;;;;4944427;28;20963;-72
2022/03/20 08:36:25;;;;;;;18.65;12.52;;;;;;;;;;4943621;28;20073;-73
2022/03/20 08:38:51;;;;;;;19.58;13.00;;;;;;;;;;4944372;28;20182;-74
2022/03/20 08:41:17;;;;;;;24.65;13.50;;;;;;;;;;4941463;28;21044;-74
2022/03/20 08:43:43;;;;;;;21.50;13.13;;;;;;;;;;4949474;28;20047;-74
2022/03/20 08:46:08;;;;;;;20.45;12.63;;;;;;;;;;4942794;28;20116;-70
2022/03/20 08:48:34;;;;;;;19.67;12.40;;;;;;;;;;4946326;28;20031;-74
2022/03/20 08:50:59;;;;;;;15.98;11.80;;;;;;;;;;4945074;28;20408;-71
2022/03/20 08:53:25;;;;;;;18.27;12.32;;;;;;;;;;4941893;28;20031;-72
2022/03/20 08:55:50;;;;;;;20.00;13.20;;;;;;;;;;4944407;28;20046;-71
2022/03/20 08:58:17;;;;;;;18.00;13.45;;;;;;;;;;4959177;28;20042;-71
2022/03/20 09:00:43;;;;;;;19.63;13.82;;;;;;;;;;4946057;28;20051;-72
2022/03/20 09:03:10;;;;;;;19.58;13.55;;;;;;;;;;4950035;28;20389;-69
2022/03/20 09:05:37;;;;;;;19.45;14.07;;;;;;;;;;4947563;28;20203;-72
2022/03/20 09:08:03;;;;;;;17.48;13.20;;;;;;;;;;4946620;28;20137;-75
2022/03/20 09:10:28;;;;;;;18.08;12.13;;;;;;;;;;4947563;28;20047;-71
2022/03/20 09:19:26;;;;;;;21.67;13.60;;;;;;;;;;4946056;28;21114;-71
2022/03/20 09:21:52;;;;;;;19.00;13.25;;;;;;;;;;4950527;28;20473;-70
2022/03/20 09:24:18;;;;;;;18.80;12.43;;;;;;;;;;4945947;28;20046;-69
2022/03/20 09:26:43;;;;;;;17.75;12.82;;;;;;;;;;4945247;28;20047;-73
2022/03/20 09:29:09;;;;;;;22.55;12.73;;;;;;;;;;4956774;28;20042;-71
2022/03/20 09:31:34;;;;;;;16.73;12.15;;;;;;;;;;4952538;28;20098;-70
2022/03/20 09:34:04;;;;;;;18.40;12.48;;;;;;;;;;4953290;28;20031;-72
2022/03/20 09:36:29;;;;;;;18.85;12.00;;;;;;;;;;4948545;28;20094;-69
2022/03/20 09:38:55;;;;;;;17.70;13.02;;;;;;;;;;4949777;28;20058;-70
2022/03/20 09:41:27;;;;;;;19.70;12.50;;;;;;;;;;4945443;28;20039;-70
2022/03/20 09:43:53;;;;;;;21.02;12.55;;;;;;;;;;4952461;28;20035;-69
2022/03/20 09:46:21;;;;;;;17.13;11.82;;;;;;;;;;4950697;28;20493;-69
2022/03/20 09:48:47;;;;;;;17.25;11.52;;;;;;;;;;4952300;28;20042;-70
2022/03/20 09:51:13;;;;;;;19.88;11.52;;;;;;;;;;4945791;28;20410;-69
2022/03/20 09:53:39;;;;;;;16.27;11.52;;;;;;;;;;4944965;28;20031;-69
2022/03/20 09:56:09;;;;;;;15.77;11.68;;;;;;;;;;4945879;28;20116;-70
2022/03/20 09:58:35;;;;;;;17.10;12.38;;;;;;;;;;4940729;28;20031;-71
2022/03/20 10:01:02;;;;;;;17.80;12.65;;;;;;;;;;4943018;28;20121;-69
2022/03/20 10:03:28;;;;;;;19.20;11.73;;;;;;;;;;4951314;28;20066;-74
2022/03/20 10:06:18;;;;;;;16.58;11.75;;;;;;;;;;4947357;28;20801;-69
2022/03/20 10:09:13;;;;;;;15.82;11.30;;;;;;;;;;4943657;28;20093;-69
2022/03/20 10:11:51;;;;;;;15.25;11.57;;;;;;;;;;4936964;28;20051;-70
2022/03/20 10:14:17;;;;;;;19.13;10.95;;;;;;;;;;4943103;28;20841;-69
2022/03/20 10:16:55;;;;;;;14.45;12.02;;;;;;;;;;4946100;28;21118;-74
2022/03/20 10:19:24;;;;;;;17.80;10.70;;;;;;;;;;4959046;28;20467;-70
2022/03/20 10:21:58;;;;;;;15.52;11.15;;;;;;;;;;4944551;28;20081;-69
2022/03/20 10:24:25;;;;;;;14.35;10.05;;;;;;;;;;4950442;28;20054;-73
2022/03/20 10:27:00;;;;;;;18.50;11.00;;;;;;;;;;4952461;28;20031;-67
2022/03/20 10:29:26;;;;;;;19.95;10.23;;;;;;;;;;4943218;28;20043;-72
2022/03/20 10:31:54;;;;;;;15.02;10.20;;;;;;;;;;4942766;28;20031;-70
2022/03/20 10:34:21;;;;;;;14.45;10.85;;;;;;;;;;4943303;28;20046;-69
2022/03/20 10:36:48;;;;;;;15.77;9.95;;;;;;;;;;4944766;28;20054;-68
2022/03/20 10:39:19;;;;;;;14.05;11.05;;;;;;;;;;4942620;28;20396;-71
2022/03/20 10:41:45;;;;;;;14.50;9.77;;;;;;;;;;4941669;28;20650;-74
2022/03/20 10:44:16;;;;;;;14.95;10.85;;;;;;;;;;4945457;28;20035;-67
2022/03/20 10:46:57;;;;;;;16.23;11.73;;;;;;;;;;4957129;28;20098;-68
2022/03/20 10:49:24;;;;;;;16.25;12.18;;;;;;;;;;4943271;28;20370;-69
2022/03/20 10:52:06;;;;;;;15.40;10.93;;;;;;;;;;4940866;28;20042;-67
2022/03/20 10:54:51;;;;;;;16.35;10.93;;;;;;;;;;4944801;28;20043;-67
2022/03/20 10:57:54;;;;;;;16.92;11.98;;;;;;;;;;4950599;28;20055;-68
2022/03/20 11:00:21;;;;;;;15.15;11.18;;;;;;;;;;4944324;28;20043;-68
2022/03/20 11:02:47;;;;;;;15.20;10.75;;;;;;;;;;4943649;28;20735;-68
2022/03/20 11:05:12;;;;;;;17.83;10.48;;;;;;;;;;4944445;28;20674;-69
2022/03/20 11:07:38;;;;;;;15.68;10.27;;;;;;;;;;4942745;28;20127;-68
2022/03/20 11:10:11;;;;;;;15.40;10.50;;;;;;;;;;4944218;28;20065;-68
2022/03/20 11:12:38;;;;;;;12.73;9.93;;;;;;;;;;4946648;28;20489;-67
2022/03/20 11:15:09;;;;;;;17.83;11.43;;;;;;;;;;4948689;28;20022;-69
2022/03/20 11:17:50;;;;;;;14.55;10.75;;;;;;;;;;4925539;28;20058;-68
2022/03/20 11:20:18;;;;;;;13.33;10.00;;;;;;;;;;4950553;28;20049;-68
2022/03/20 11:22:49;;;;;;;14.60;10.48;;;;;;;;;;4948092;28;20085;-69
2022/03/20 11:25:20;;;;;;;15.82;11.00;;;;;;;;;;4957344;28;20081;-68
2022/03/20 11:28:01;;;;;;;15.02;10.93;;;;;;;;;;4942105;28;20050;-68
2022/03/20 11:30:29;;;;;;;14.55;10.10;;;;;;;;;;4950621;28;20544;-68
2022/03/20 11:32:57;;;;;;;16.75;11.85;;;;;;;;;;4944113;28;20473;-68
2022/03/20 11:35:28;;;;;;;14.63;10.65;;;;;;;;;;4956859;28;20050;-68
2022/03/20 11:37:58;;;;;;;15.50;10.95;;;;;;;;;;4947329;28;20038;-69
2022/03/20 11:40:26;;;;;;;19.42;11.57;;;;;;;;;;4949813;28;20106;-69
2022/03/20 11:43:15;;;;;;;15.25;10.82;;;;;;;;;;4942613;28;20019;-70
2022/03/20 11:45:41;;;;;;;17.05;10.73;;;;;;;;;;4944735;28;20063;-68
2022/03/20 11:48:16;;;;;;;12.77;9.68;;;;;;;;;;4943733;28;20065;-69
2022/03/20 11:50:47;;;;;;;14.98;10.55;;;;;;;;;;4942912;28;20035;-69
2022/03/20 11:53:13;;;;;;;18.10;10.63;;;;;;;;;;4941934;28;20038;-68
2022/03/20 11:55:41;;;;;;;16.30;10.82;;;;;;;;;;4946287;28;20107;-68
2022/03/20 11:58:16;;;;;;;15.10;10.95;;;;;;;;;;4946826;28;20039;-68
2022/03/20 12:00:44;;;;;;;14.63;11.15;;;;;;;;;;4948032;28;20039;-69
2022/03/20 12:03:12;;;;;;;15.77;10.70;;;;;;;;;;4948704;28;20053;-72
2022/03/20 12:05:41;;;;;;;15.82;10.77;;;;;;;;;;4945441;28;20037;-74
2022/03/20 12:08:44;;;;;;;13.20;10.68;;;;;;;;;;4948828;28;20462;-70
2022/03/20 12:11:30;;;;;;;21.67;17.98;;;;;;;;;;4941905;28;20121;-69
2022/03/20 12:14:01;;;;;;;15.75;10.25;;;;;;;;;;4948102;28;20034;-70
2022/03/20 12:16:45;;;;;;;14.80;10.27;;;;;;;;;;4943689;28;20050;-69
2022/03/20 12:19:13;;;;;;;16.92;10.90;;;;;;;;;;4942400;28;20110;-68
2022/03/20 12:22:00;;;;;;;12.38;9.52;;;;;;;;;;4942479;28;20039;-70
2022/03/20 12:24:45;;;;;;;15.50;11.38;;;;;;;;;;4944927;28;20049;-69
2022/03/20 12:27:19;;;;;;;13.55;10.35;;;;;;;;;;4942741;28;20043;-67
2022/03/20 12:30:01;;;;;;;15.48;10.85;;;;;;;;;;4944275;28;20050;-67
2022/03/20 12:32:47;;;;;;;15.00;10.38;;;;;;;;;;4946264;28;20409;-70
2022/03/20 12:35:15;;;;;;;13.90;9.85;;;;;;;;;;4946677;28;20126;-70
2022/03/20 12:37:43;;;;;;;14.07;9.82;;;;;;;;;;4946660;28;20083;-70
2022/03/20 12:40:18;;;;;;;14.40;9.52;;;;;;;;;;4946439;28;20121;-68
2022/03/20 12:43:05;;;;;;;14.75;10.40;;;;;;;;;;4946786;28;20043;-69
2022/03/20 12:45:32;;;;;;;12.65;10.10;;;;;;;;;;4948724;28;20042;-68
2022/03/20 12:48:06;;;;;;;12.98;9.48;;;;;;;;;;4946431;28;20424;-71
2022/03/20 12:50:34;;;;;;;21.25;10.50;;;;;;;;;;4945246;28;20086;-72
2022/03/20 12:53:17;;;;;;;15.05;10.18;;;;;;;;;;4946887;28;20031;-68
2022/03/20 12:56:06;;;;;;;14.75;9.60;;;;;;;;;;4945813;28;20407;-69
2022/03/20 12:58:32;;;;;;;16.50;9.68;;;;;;;;;;4943536;28;20093;-70
2022/03/20 13:00:58;;;;;;;13.77;8.80;;;;;;;;;;4944416;28;20047;-69
2022/03/20 13:03:26;;;;;;;12.93;8.93;;;;;;;;;;4944749;28;20413;-69
2022/03/20 13:05:54;;;;;;;16.20;10.38;;;;;;;;;;4949961;28;20162;-71
2022/03/20 13:08:21;;;;;;;14.10;9.95;;;;;;;;;;4945541;28;20035;-70
2022/03/20 13:10:47;;;;;;;15.57;9.98;;;;;;;;;;4944337;28;20039;-70
2022/03/20 13:13:16;;;;;;;14.25;9.68;;;;;;;;;;4943803;28;20074;-70
2022/03/20 13:15:42;;;;;;;12.18;9.07;;;;;;;;;;4945619;28;20027;-68
2022/03/20 13:18:09;;;;;;;17.30;10.05;;;;;;;;;;4944848;28;20527;-70
2022/03/20 13:20:37;;;;;;;14.85;9.93;;;;;;;;;;4945526;28;20121;-70
2022/03/20 13:23:14;;;;;;;15.25;8.95;;;;;;;;;;4945117;28;20941;-70
2022/03/20 13:25:42;;;;;;;15.13;9.88;;;;;;;;;;4945122;28;20038;-68
2022/03/20 13:28:21;;;;;;;13.27;9.10;;;;;;;;;;4951778;28;20106;-70
2022/03/20 13:30:48;;;;;;;13.25;8.48;;;;;;;;;;4944800;28;20042;-68
2022/03/20 13:33:14;;;;;;;16.45;10.18;;;;;;;;;;4944907;28;20027;-69
2022/03/20 13:35:39;;;;;;;14.25;9.90;;;;;;;;;;4945095;28;20050;-68
2022/03/20 13:38:05;;;;;;;15.63;9.82;;;;;;;;;;4944806;28;20070;-71
2022/03/20 13:40:33;;;;;;;15.07;10.25;;;;;;;;;;4958695;28;20390;-70
2022/03/20 13:43:00;;;;;;;13.27;9.13;;;;;;;;;;4943446;28;20062;-69
2022/03/20 13:45:36;;;;;;;13.20;9.07;;;;;;;;;;4952247;28;20412;-70
2022/03/20 13:48:06;;;;;;;12.57;8.98;;;;;;;;;;4944525;28;20034;-70
2022/03/20 13:50:32;;;;;;;13.25;10.02;;;;;;;;;;4943505;28;20519;-69
2022/03/20 13:52:58;;;;;;;14.60;8.70;;;;;;;;;;4944860;28;20035;-70
2022/03/20 13:55:34;;;;;;;12.10;8.77;;;;;;;;;;4944714;28;20035;-70
2022/03/20 13:58:01;;;;;;;12.38;8.13;;;;;;;;;;4944996;28;20119;-70
2022/03/20 14:00:32;;;;;;;13.68;8.95;;;;;;;;;;4945694;28;20142;-71
2022/03/20 14:02:58;;;;;;;12.93;9.38;;;;;;;;;;4957623;28;20061;-70
2022/03/20 14:05:29;;;;;;;14.27;9.02;;;;;;;;;;4945721;28;20474;-71
2022/03/20 14:08:18;;;;;;;14.57;9.88;;;;;;;;;;4944487;28;20037;-70
2022/03/20 14:10:57;;;;;;;14.65;10.30;;;;;;;;;;4943828;28;20487;-70
2022/03/20 14:13:29;;;;;;;12.43;8.88;;;;;;;;;;4950196;28;20051;-70
2022/03/20 14:15:57;;;;;;;17.48;10.15;;;;;;;;;;4943026;28;20039;-70
2022/03/20 14:18:22;;;;;;;15.77;9.63;;;;;;;;;;4944432;28;20456;-70
2022/03/20 14:20:48;;;;;;;16.05;10.70;;;;;;;;;;4944354;28;20468;-70
2022/03/20 14:23:13;;;;;;;13.18;10.40;;;;;;;;;;4948082;28;20043;-69
2022/03/20 14:25:44;;;;;;;13.68;9.88;;;;;;;;;;4944499;28;20037;-69
2022/03/20 14:28:13;;;;;;;12.57;9.73;;;;;;;;;;4942611;28;20146;-69
2022/03/20 14:41:52;;;;;;;13.48;8.65;;;;;;;;;;4945524;28;20043;-70
2022/03/20 14:44:21;;;;;;;16.55;9.75;;;;;;;;;;4943113;28;20043;-69
2022/03/20 14:46:50;;;;;;;15.23;9.23;;;;;;;;;;4944801;28;20042;-70
2022/03/20 14:49:16;;;;;;;12.52;9.23;;;;;;;;;;4943926;28;20129;-69
2022/03/20 14:51:42;;;;;;;18.13;9.20;;;;;;;;;;4944766;28;20121;-71
2022/03/20 14:54:09;;;;;;;15.57;9.68;;;;;;;;;;4942703;28;20053;-71
2022/03/20 14:56:37;;;;;;;13.27;8.98;;;;;;;;;;4943730;28;20023;-70
2022/03/20 14:59:04;;;;;;;14.25;9.25;;;;;;;;;;4942616;28;20031;-70
2022/03/20 15:01:30;;;;;;;14.43;9.43;;;;;;;;;;4944146;28;20039;-71
2022/03/20 15:03:56;;;;;;;15.55;9.63;;;;;;;;;;4946437;28;20034;-68
2022/03/20 15:06:24;;;;;;;19.42;9.27;;;;;;;;;;4943507;28;20051;-70
2022/03/20 15:11:38;;;;;;;14.75;9.13;;;;;;;;;;4943647;28;20043;-67
2022/03/20 15:14:04;;;;;;;16.23;9.95;;;;;;;;;;4941958;28;20050;-68
2022/03/20 15:16:31;;;;;;;13.30;9.52;;;;;;;;;;4944071;28;20035;-70
2022/03/20 15:18:57;;;;;;;13.27;9.07;;;;;;;;;;4943120;28;20034;-67
2022/03/20 15:21:23;;;;;;;14.43;10.23;;;;;;;;;;4944032;28;20049;-70